Weather observations for the past three days for
Hagerstown, Washington County Regional Airport
Imperial (Metric)
Date Time (edt) Wind (mph) Vis. (mi.) Weather Sky Cond. Temperature (ºF) Relative Humidity Wind Chill (°F) Heat Index (°F) Pressure Precipitation (in)
Air Dwpt 6 hour altimeter (in) sea level (mb) 1 hr 3 hr 6 hr
Max. Min.
04 19:53 SW 3 10.00 Fair CLR 81 70 84.9 81 69% 84 29.89 1012.6
04 18:53 Calm 10.00 Overcast OVC046 82 70 67% 86 29.91 1013.0
04 17:53 W 5 10.00 A Few Clouds FEW110 82.9 70 65% 87 29.91 1013.3
04 16:53 W 8 10.00 Fair CLR 84 70 63% 88 29.92 1013.6
04 15:53 NW 6 10.00 Fair CLR 84 71.1 65% 89 29.91 1013.2
04 14:53 W 9 10.00 Partly Cloudy SCT055 84 70 63% 88 29.94 1014.0
04 13:53 NW 5 10.00 Partly Cloudy SCT033 84 71.1 84 71.1 65% 89 29.96 1014.8
04 12:53 SW 7 10.00 A Few Clouds FEW031 82 69.1 65% 85 29.97 1015.2
04 11:53 W 6 10.00 A Few Clouds FEW025 80.1 69.1 69% 83 29.99 1015.8
04 10:53 NW 3 10.00 A Few Clouds FEW024 77 68 74% 79 29.99 1016.0
04 09:53 W 5 10.00 Partly Cloudy FEW019 SCT024 75 68 79% 76 29.99 1016.1
04 08:53 Calm 10.00 Fair CLR 73.9 70 88% 29.99 1015.7
04 07:53 S 3 10.00 Fair CLR 71.1 68 71.1 69.1 90% 29.99 1015.7
04 06:53 Calm 10.00 Fair CLR 69.1 68 96% 29.98 1015.6
04 05:53 S 6 9.00 Partly Cloudy SCT100 69.1 68 96% 29.97 1014.9
04 04:53 E 5 7.00 Light Rain FEW055 BKN085 OVC100 69.1 68 96% 29.96 1015.0
04 03:53 S 5 10.00 A Few Clouds FEW110 69.1 68 96% 29.95 1014.4
04 02:53 S 7 10.00 Fair CLR 69.1 68 96% 29.94 1014.2
04 01:53 S 6 10.00 Fair CLR 69.1 68 86 69.1 96% 29.94 1014.1 0.69
04 00:53 S 7 10.00 Fair CLR 70 68 93% 29.97 1015.3
03 23:53 S 5 10.00 Light Rain SCT100 71.1 69.1 94% 29.99 1016.1 0.1
03 22:53 NW 6 7.00 Thunderstorm in Vicinity Light Rain FEW045 BKN090 OVC110 73 66.9 81% 30.03 1017.6 0.08 0.59
03 21:53 NW 3 10.00 Thunderstorm SCT019 SCT110 72 69.1 91% 29.99 1016.0 0.51
03 20:53 S 3 10.00 Fair CLR 84 73.9 72% 91 29.95 1014.4
03 19:53 Calm 10.00 Fair CLR 87.1 73 89.1 77 63% 95 29.97 1015.0
03 18:53 Calm 10.00 Fair CLR 87.1 72 61% 94 29.94 1014.1
03 17:53 S 6 10.00 Fair CLR 88 71.1 57% 94 29.93 1013.8
03 16:53 S 8 10.00 Fair CLR 87.1 72 61% 94 29.94 1014.1
03 15:53 SW 6 10.00 Fair CLR 84 71.1 65% 89 29.97 1015.1
03 14:53 S 7 10.00 Fair CLR 81 71.1 72% 85 30 1016.1
03 13:53 SW 7 10.00 Fair CLR 77 70 77 70 79% 79 30.02 1016.9 0.01 0.17
03 12:53 S 7 10.00 Light Rain SCT100 BKN120 73 69.1 87% 30.04 1017.5
03 09:53 SW 7 10.00 Partly Cloudy SCT050CB 73.9 71.1 91% 30.06 1018.5
03 08:53 SW 7 8.00 Light Rain FEW029 SCT100 71.1 70 96% 30.06 1018.3
03 07:53 W 8 3.00 Thunderstorm Light Rain Fog/Mist SCT100CB SCT120 71.1 70 73 71.1 96% 30.08 1019.0 0.03 0.03
03 06:53 Calm 10.00 Mostly Cloudy BKN065CB 71.1 69.1 94% 30.08 1019.0
03 05:53 NE 13 G 23 6.00 Light Rain Fog/Mist BKN010 BKN019 OVC035 72 69.1 91% 30.07 1018.5
03 04:53 NE 7 10.00 Overcast OVC019 72 69.1 91% 30.05 1018.0
03 03:53 E 3 10.00 Mostly Cloudy BKN070 72 69.1 91% 30.02 1017.0
03 02:53 E 3 10.00 Mostly Cloudy BKN085 72 69.1 91% 30.03 1017.3
03 01:53 N 5 10.00 Partly Cloudy SCT075 72 69.1 78.1 72 91% 30.02 1017.1
03 00:53 S 6 10.00 A Few Clouds FEW070 75 69.1 82% 75 30.02 1017.1
02 23:53 SE 3 10.00 Partly Cloudy SCT080 73.9 69.1 85% 30.05 1017.7
02 22:53 SE 6 10.00 Fair CLR 73.9 69.1 85% 30.04 1017.4
02 21:53 E 7 10.00 Fair CLR 73.9 69.1 85% 30.05 1017.7
02 20:53 SE 8 10.00 Fair CLR 75 69.1 82% 75 30.03 1017.3
02 19:53 S 6 10.00 Partly Cloudy FEW065 SCT110 78.1 68 82.9 73.9 71% 80 30.05 1017.9
02 18:53 S 8 10.00 Fair CLR 81 69.1 67% 84 30.05 1017.9
02 17:53 SE 9 10.00 Fair CLR 82.9 71.1 67% 88 30.04 1017.6
02 16:53 S 5 10.00 Fair CLR 82.9 71.1 67% 88 30.05 1017.9
02 15:53 S 6 10.00 Fair CLR 81 70 69% 84 30.06 1018.4
02 14:53 Calm 10.00 Overcast OVC095 77 70 79% 79 30.09 1019.3
02 13:53 NE 5 10.00 Partly Cloudy SCT120 73.9 70 84 70 88% 30.08 1019.2 0.23
02 12:53 NE 9 10.00 Thunderstorm in Vicinity SCT031 BKN050CB OVC060 71.1 69.1 94% 30.13 1020.9 0.23
02 11:53 W 6 10.00 Partly Cloudy SCT100CB 84 71.1 65% 89 30.11 1019.8
02 10:53 SE 7 10.00 Fair CLR 82.9 71.1 67% 88 30.08 1018.8
02 09:53 S 5 10.00 Fair CLR 80.1 70 71% 83 30.08 1018.8
02 08:53 SW 3 10.00 Fair CLR 78.1 70 76% 80 30.09 1019.1
02 07:53 E 5 10.00 Fair CLR 73 69.1 75 72 87% 30.07 1018.4
02 06:53 S 3 10.00 A Few Clouds FEW120 73 69.1 87% 30.06 1018.2
02 05:53 Calm 10.00 Overcast SCT080 OVC095 73 69.1 87% 30.07 1018.5
02 04:53 E 5 10.00 Overcast OVC075 73.9 69.1 85% 30.06 1018.0
02 03:53 E 5 10.00 A Few Clouds FEW120 73.9 69.1 85% 30.06 1018.0
02 02:53 NW 3 10.00 Partly Cloudy SCT120 73 69.1 87% 30.05 1017.7
02 01:53 NW 3 10.00 Partly Cloudy SCT120 75 69.1 86 75 82% 75 30.06 1018.0
02 00:53 E 5 10.00 A Few Clouds FEW045 78.1 69.1 74% 80 30.06 1018.3
01 23:53 SW 3 10.00 Partly Cloudy SCT050 82 68 63% 85 30.04 1017.6
01 22:53 SW 6 10.00 Fair CLR 82 68 63% 85 30.02 1016.7
01 21:53 W 9 10.00 Fair CLR 84 69.1 61% 88 30.01 1016.3
01 20:53 W 10 10.00 Fair CLR 84.9 69.1 59% 89 29.99 1015.8
Date Time (edt) Wind (mph) Vis. (mi.) Weather Sky Cond. Air Dwpt Max. Min. Relative Humidity Wind Chill (°F) Heat Index (°F) altimeter (in) sea level (mb) 1 hr 3 hr 6 hr
6 hour
Temperature (ºF) Pressure Precipitation (in)